Strona główna
METAR-TAF:

METAR-TAF

Lotnisko :

Le Luc, Francja

Szerokość geograficzna: 43-23N, Długość geograficzna: 006-23E, wysokość: 80 m

Aktualna obserwacja pogody

Raport powstał 32 minut temu, godzina 11:30 UTC
Wiatr 10 kt od wschód
Temperatura 15°C
Wilgotność 82%
Ciśnienie 1017 hPa
Widzialność 10 km lub więcej
Mało chmury na wysokości 1900 ft
Rozproszone chmury na wysokości 3800 ft
Zachmurzenie całkowite na wysokości 4600 ft

METAR: LFMC 161130Z AUTO 08010KT 9999 FEW019 SCT038 OVC046 15/12 Q1017

czas: 13:02 (12:02 UTC)


TAF: brakujący

Obserwacja i prognoza pogody dla ponad 4000 lotnisk (raport METAR i TAF).

Dostępne stacje oznaczono żółtymi i czerwonymi punktami na mapie.

Najedź kursorem aby zobaczyć nazwę stacji.

Kliknij aby zobaczyć obserwacje i prognozy pogody.

Aby zmienić mapę: kliknij na zielony przycisk z czarnym krzyżykiem, aby powiększyć; na zielony przycisk z myślnikiem, aby pomniejszyć; na zielone strzałki, aby przejść do map sąsiednich.


METAR-TAF: